createdAt,value
2018-01-05T00:00:22.745Z,9.25
2018-01-05T00:01:22.734Z,9.25
2018-01-05T00:02:22.711Z,9.31
2018-01-05T00:03:22.957Z,9.31
2018-01-05T00:04:22.673Z,9.28
2018-01-05T00:05:22.390Z,9.16
2018-01-05T00:06:22.899Z,9.21
2018-01-05T00:07:22.882Z,9.16
2018-01-05T00:08:22.860Z,9.23
2018-01-05T00:09:22.577Z,9.31
2018-01-05T00:10:22.565Z,9.27
2018-01-05T00:11:22.276Z,9.28
2018-01-05T00:12:22.265Z,9.27
2018-01-05T00:13:22.504Z,9.21
2018-01-05T00:14:22.481Z,9.28
2018-01-05T00:15:22.734Z,9.15
2018-01-05T00:16:22.446Z,9.18
2018-01-05T00:17:22.164Z,9.15
2018-01-05T00:18:22.407Z,9.21
2018-01-05T00:19:22.123Z,9.21
2018-01-05T00:20:22.100Z,9.1
2018-01-05T00:21:22.348Z,9.13
2018-01-05T00:22:22.066Z,9.18
2018-01-05T00:23:22.316Z,9.1
2018-01-05T00:24:22.292Z,9.09
2018-01-05T00:25:22.013Z,9.1
2018-01-05T00:26:22.251Z,9.06
2018-01-05T00:27:22.704Z,8.99
2018-01-05T00:28:21.952Z,9.15
2018-01-05T00:29:22.200Z,9.06
2018-01-05T00:30:21.913Z,9.13
2018-01-05T00:31:22.156Z,9.13
2018-01-05T00:32:22.139Z,9.13
2018-01-05T00:33:22.391Z,9.05
2018-01-05T00:34:22.103Z,9.09
2018-01-05T00:35:22.080Z,9.09
2018-01-05T00:36:22.066Z,9.06
2018-01-05T00:37:22.043Z,9.15
2018-01-05T00:38:21.807Z,9.04
2018-01-05T00:39:22.270Z,9.13
2018-01-05T00:40:21.986Z,9.04
2018-01-05T00:41:22.236Z,9.04
2018-01-05T00:42:21.947Z,9.09
2018-01-05T00:43:21.929Z,9.09
2018-01-05T00:44:22.176Z,9.09
2018-01-05T00:45:21.896Z,8.91
2018-01-05T00:46:22.139Z,8.96
2018-01-05T00:47:22.123Z,8.87
2018-01-05T00:48:21.836Z,9.01
2018-01-05T00:49:21.817Z,9.04
2018-01-05T00:50:22.067Z,9.05
2018-01-05T00:51:21.779Z,8.96
2018-01-05T00:52:21.759Z,8.93
2018-01-05T00:53:21.737Z,8.93
2018-01-05T00:54:21.979Z,8.99
2018-01-05T00:55:21.967Z,8.91
2018-01-05T00:56:21.419Z,8.9
2018-01-05T00:57:21.659Z,8.91
2018-01-05T00:58:21.911Z,8.87
2018-01-05T00:59:21.359Z,8.94
2018-01-05T01:00:21.612Z,8.91
2018-01-05T01:01:21.329Z,8.84
2018-01-05T01:02:21.838Z,8.88
2018-01-05T01:03:21.546Z,8.86
2018-01-05T01:04:21.528Z,8.88
2018-01-05T01:05:21.516Z,8.91
2018-01-05T01:06:21.751Z,8.93
2018-01-05T01:07:21.203Z,8.94
2018-01-05T01:08:21.723Z,8.91
2018-01-05T01:09:21.170Z,8.81
2018-01-05T01:10:21.150Z,8.91
2018-01-05T01:11:21.396Z,8.91
2018-01-05T01:12:21.378Z,8.96
2018-01-05T01:13:21.358Z,8.94
2018-01-05T01:14:21.071Z,8.87
2018-01-05T01:15:21.316Z,8.91
2018-01-05T01:16:21.297Z,8.93
2018-01-05T01:17:21.282Z,8.94
2018-01-05T01:18:21.532Z,8.94
2018-01-05T01:19:21.246Z,8.94
2018-01-05T01:20:21.492Z,8.87
2018-01-05T01:21:21.199Z,8.86
2018-01-05T01:22:21.184Z,8.81
2018-01-05T01:23:21.163Z,8.81
2018-01-05T01:24:21.411Z,8.86
2018-01-05T01:25:21.390Z,8.93
2018-01-05T01:26:21.376Z,8.94
2018-01-05T01:27:21.091Z,8.88
2018-01-05T01:28:21.344Z,8.94
2018-01-05T01:29:21.055Z,8.94
2018-01-05T01:30:20.773Z,8.93
2018-01-05T01:31:21.277Z,8.9
2018-01-05T01:32:20.999Z,8.9
2018-01-05T01:33:20.975Z,8.93
2018-01-05T01:34:21.232Z,8.94
2018-01-05T01:35:21.202Z,8.9
2018-01-05T01:36:20.916Z,8.94
2018-01-05T01:37:21.160Z,8.93
2018-01-05T01:38:20.614Z,8.91
2018-01-05T01:39:20.865Z,8.91
2018-01-05T01:40:20.860Z,8.94
2018-01-05T01:41:21.086Z,8.86
2018-01-05T01:42:20.807Z,8.81
2018-01-05T01:43:20.835Z,8.93
2018-01-05T01:44:21.035Z,8.76
2018-01-05T01:45:21.013Z,8.81
2018-01-05T01:46:20.726Z,8.79
2018-01-05T01:47:20.450Z,8.83
2018-01-05T01:48:20.689Z,8.81
2018-01-05T01:49:20.939Z,8.9
2018-01-05T01:50:20.917Z,8.84
2018-01-05T01:51:20.632Z,8.84
2018-01-05T01:52:20.878Z,8.88
2018-01-05T01:53:20.860Z,8.81
2018-01-05T01:54:20.842Z,8.75
2018-01-05T01:55:20.554Z,8.84
2018-01-05T01:56:20.538Z,8.75
2018-01-05T01:57:20.520Z,8.69
2018-01-05T01:58:20.768Z,8.78
2018-01-05T01:59:20.484Z,8.75
2018-01-05T02:00:20.462Z,8.88
2018-01-05T02:01:20.704Z,8.88
2018-01-05T02:02:20.422Z,8.86
2018-01-05T02:03:20.134Z,8.88
2018-01-05T02:04:20.650Z,8.86
2018-01-05T02:05:20.630Z,8.86
2018-01-05T02:06:20.353Z,8.83
2018-01-05T02:07:20.332Z,8.83
2018-01-05T02:08:20.585Z,8.86
2018-01-05T02:09:20.557Z,8.86
2018-01-05T02:10:20.268Z,8.86
2018-01-05T02:11:20.257Z,8.9
2018-01-05T02:12:20.497Z,8.84
2018-01-05T02:13:20.475Z,8.84
2018-01-05T02:14:20.191Z,8.81
2018-01-05T02:15:20.173Z,8.9
2018-01-05T02:16:20.157Z,8.86
2018-01-05T02:17:20.136Z,8.9
2018-01-05T02:18:20.114Z,8.87
2018-01-05T02:19:19.831Z,8.79
2018-01-05T02:20:20.341Z,8.71
2018-01-05T02:21:19.792Z,8.87
2018-01-05T02:22:19.786Z,8.83
2018-01-05T02:23:20.284Z,8.87
2018-01-05T02:24:20.004Z,8.84
2018-01-05T02:25:20.259Z,8.86
2018-01-05T02:26:20.226Z,8.91
2018-01-05T02:27:19.878Z,8.86
2018-01-05T02:28:20.189Z,8.88
2018-01-05T02:29:20.178Z,8.86
2018-01-05T02:30:19.896Z,8.83
2018-01-05T02:31:19.866Z,8.9
2018-01-05T02:32:19.853Z,8.81
2018-01-05T02:33:19.563Z,8.86
2018-01-05T02:34:19.808Z,8.84
2018-01-05T02:35:19.521Z,8.84
2018-01-05T02:36:20.037Z,8.84
2018-01-05T02:37:19.488Z,8.88
2018-01-05T02:38:19.734Z,8.84
2018-01-05T02:39:19.980Z,8.91
2018-01-05T02:40:19.697Z,8.87
2018-01-05T02:41:19.685Z,8.78
2018-01-05T02:42:19.657Z,8.83
2018-01-05T02:43:19.373Z,8.81
2018-01-05T02:44:19.884Z,8.81
2018-01-05T02:45:19.597Z,8.83
2018-01-05T02:46:19.842Z,8.86
2018-01-05T02:47:19.561Z,8.84
2018-01-05T02:48:19.541Z,8.86
2018-01-05T02:49:19.521Z,8.87
2018-01-05T02:50:19.501Z,8.9
2018-01-05T02:51:19.496Z,8.84
2018-01-05T02:52:19.468Z,8.83
2018-01-05T02:53:19.448Z,8.87
2018-01-05T02:54:19.428Z,8.86
2018-01-05T02:55:19.413Z,8.88
2018-01-05T02:56:19.399Z,8.93
2018-01-05T02:57:19.635Z,8.87
2018-01-05T02:58:19.626Z,8.83
2018-01-05T02:59:19.341Z,8.71
2018-01-05T03:00:19.311Z,8.78
2018-01-05T03:01:19.292Z,8.78
2018-01-05T03:02:19.011Z,8.79
2018-01-05T03:03:19.520Z,8.88
2018-01-05T03:04:19.244Z,8.91
2018-01-05T03:05:19.485Z,8.91
2018-01-05T03:06:19.197Z,8.79
2018-01-05T03:07:19.446Z,8.86
2018-01-05T03:08:19.161Z,8.9
2018-01-05T03:09:19.141Z,8.91
2018-01-05T03:10:19.385Z,8.9
2018-01-05T03:11:19.103Z,8.79
2018-01-05T03:12:18.824Z,8.86
2018-01-05T03:13:19.333Z,8.83
2018-01-05T03:14:19.307Z,8.81
2018-01-05T03:15:19.286Z,8.81
2018-01-05T03:16:19.275Z,8.86
2018-01-05T03:17:18.725Z,8.83
2018-01-05T03:18:19.234Z,8.84
2018-01-05T03:19:18.955Z,8.84
2018-01-05T03:20:19.209Z,8.81
2018-01-05T03:21:18.912Z,8.86
2018-01-05T03:22:19.217Z,8.88
2018-01-05T03:23:19.143Z,8.72
2018-01-05T03:24:18.858Z,8.78
2018-01-05T03:25:19.114Z,8.84
2018-01-05T03:26:18.816Z,8.76
2018-01-05T03:27:18.801Z,8.75
2018-01-05T03:28:18.516Z,8.87
2018-01-05T03:29:19.021Z,8.81
2018-01-05T03:30:18.795Z,8.86
2018-01-05T03:31:18.723Z,8.83
2018-01-05T03:32:18.726Z,8.93
2018-01-05T03:33:18.696Z,8.88
2018-01-05T03:34:18.416Z,8.93
2018-01-05T03:35:18.914Z,8.93
2018-01-05T03:36:18.627Z,8.9
2018-01-05T03:37:18.873Z,8.91
2018-01-05T03:38:18.853Z,8.84
2018-01-05T03:39:18.305Z,8.87
2018-01-05T03:40:18.823Z,8.91
2018-01-05T03:41:18.804Z,8.93
2018-01-05T03:42:18.778Z,8.96
2018-01-05T03:43:18.763Z,9.01
2018-01-05T03:44:18.480Z,8.96
2018-01-05T03:45:18.460Z,8.93
2018-01-05T03:46:18.443Z,8.91
2018-01-05T03:47:18.684Z,8.96
2018-01-05T03:48:18.405Z,8.94
2018-01-05T03:49:18.651Z,8.94
2018-01-05T03:50:18.364Z,8.91
2018-01-05T03:51:18.341Z,8.96
2018-01-05T03:52:18.324Z,9.09
2018-01-05T03:53:18.630Z,8.97
2018-01-05T03:54:18.286Z,9.04
2018-01-05T03:55:18.271Z,9.04
2018-01-05T03:56:17.984Z,8.97
2018-01-05T03:57:18.233Z,8.96
2018-01-05T03:58:18.213Z,8.94
2018-01-05T03:59:18.188Z,8.94
2018-01-05T04:00:18.439Z,8.91
2018-01-05T04:01:18.150Z,8.93
2018-01-05T04:02:18.138Z,8.91
2018-01-05T04:03:18.121Z,8.97
2018-01-05T04:04:18.100Z,8.79
2018-01-05T04:05:18.082Z,8.88
2018-01-05T04:06:18.058Z,8.78
2018-01-05T04:07:18.040Z,8.81
2018-01-05T04:08:17.762Z,8.79
2018-01-05T04:09:17.998Z,8.84
2018-01-05T04:10:17.983Z,8.79
2018-01-05T04:11:18.227Z,8.84
2018-01-05T04:12:18.210Z,8.73
2018-01-05T04:13:17.930Z,8.73
2018-01-05T04:14:17.911Z,8.73
2018-01-05T04:15:18.145Z,8.71
2018-01-05T04:16:17.639Z,8.72
2018-01-05T04:17:17.857Z,8.72
2018-01-05T04:18:17.563Z,8.65
2018-01-05T04:19:18.076Z,8.75
2018-01-05T04:20:17.522Z,8.73
2018-01-05T04:21:17.778Z,8.55
2018-01-05T04:22:18.011Z,8.62
2018-01-05T04:23:17.740Z,8.65
2018-01-05T04:24:17.973Z,8.62
2018-01-05T04:25:17.952Z,8.6
2018-01-05T04:26:17.676Z,8.55
2018-01-05T04:27:17.853Z,8.55
2018-01-05T04:28:17.900Z,8.51
2018-01-05T04:29:17.351Z,8.48
2018-01-05T04:30:17.860Z,8.36
2018-01-05T04:31:17.577Z,8.37
2018-01-05T04:32:17.561Z,8.33
2018-01-05T04:33:17.534Z,8.32
2018-01-05T04:34:17.511Z,8.32
2018-01-05T04:35:17.235Z,8.29
2018-01-05T04:36:17.479Z,8.35
2018-01-05T04:37:17.724Z,8.29
2018-01-05T04:38:17.710Z,8.33
2018-01-05T04:39:17.680Z,8.18
2018-01-05T04:40:17.395Z,8.2
2018-01-05T04:41:17.377Z,8.18
2018-01-05T04:42:17.360Z,8.2
2018-01-05T04:43:17.335Z,8.26
2018-01-05T04:44:17.324Z,8.18
2018-01-05T04:45:17.301Z,8.17
2018-01-05T04:46:17.548Z,8.14
2018-01-05T04:47:17.005Z,8.15
2018-01-05T04:48:17.239Z,8.18
2018-01-05T04:49:17.490Z,8.17
2018-01-05T04:50:17.198Z,8.11
2018-01-05T04:51:17.445Z,8.17
2018-01-05T04:52:16.901Z,8.2
2018-01-05T04:53:17.418Z,8.17
2018-01-05T04:54:17.389Z,8.15
2018-01-05T04:55:17.103Z,8.14
2018-01-05T04:56:17.085Z,8.12
2018-01-05T04:57:17.066Z,8.15
2018-01-05T04:58:17.312Z,8.15
2018-01-05T04:59:17.027Z,8.11
2018-01-05T05:00:17.268Z,8.12
2018-01-05T05:01:17.251Z,8.12
2018-01-05T05:02:17.232Z,8.15
2018-01-05T05:03:17.212Z,8.17
2018-01-05T05:04:17.198Z,8.14
2018-01-05T05:05:16.927Z,8.28
2018-01-05T05:06:16.898Z,8.21
2018-01-05T05:07:16.879Z,8.18
2018-01-05T05:08:17.133Z,8.25
2018-01-05T05:09:16.847Z,8.28
2018-01-05T05:10:16.814Z,8.17
2018-01-05T05:11:17.061Z,8.22
2018-01-05T05:12:16.780Z,8.12
2018-01-05T05:13:16.748Z,8.22
2018-01-05T05:14:16.734Z,8.08
2018-01-05T05:15:16.981Z,8.11
2018-01-05T05:16:16.959Z,8.12
2018-01-05T05:17:16.939Z,8.08
2018-01-05T05:18:16.652Z,8.14
2018-01-05T05:19:16.631Z,8.07
2018-01-05T05:20:16.348Z,8.08
2018-01-05T05:21:16.330Z,8.04
2018-01-05T05:22:16.839Z,8.04
2018-01-05T05:23:16.557Z,8.1
2018-01-05T05:24:16.529Z,8.07
2018-01-05T05:25:16.509Z,8.17
2018-01-05T05:26:16.758Z,8.18
2018-01-05T05:27:16.470Z,8.14
2018-01-05T05:28:16.716Z,8.14
2018-01-05T05:29:16.435Z,8.12
2018-01-05T05:30:16.414Z,8.2
2018-01-05T05:31:16.402Z,8.26
2018-01-05T05:32:16.373Z,8.21
2018-01-05T05:33:16.617Z,8.18
2018-01-05T05:34:16.075Z,8.18
2018-01-05T05:35:16.314Z,8.2
2018-01-05T05:36:16.345Z,8.29
2018-01-05T05:37:16.536Z,8.35
2018-01-05T05:38:16.252Z,8.36
2018-01-05T05:39:16.496Z,8.35
2018-01-05T05:40:16.482Z,8.3
2018-01-05T05:41:16.459Z,8.35
2018-01-05T05:42:16.440Z,8.39
2018-01-05T05:43:16.156Z,8.32
2018-01-05T05:44:15.883Z,8.35
2018-01-05T05:45:16.119Z,8.47
2018-01-05T05:46:16.415Z,8.44
2018-01-05T05:47:15.811Z,8.55
2018-01-05T05:48:16.325Z,8.55
2018-01-05T05:49:16.303Z,8.58
2018-01-05T05:50:16.021Z,8.65
2018-01-05T05:51:15.997Z,8.75
2018-01-05T05:52:15.981Z,8.72
2018-01-05T05:53:16.228Z,8.78
2018-01-05T05:54:16.205Z,8.86
2018-01-05T05:55:16.187Z,8.88
2018-01-05T05:56:15.900Z,8.93
2018-01-05T05:57:15.881Z,8.91
2018-01-05T05:58:16.124Z,8.93
2018-01-05T05:59:16.104Z,8.9
2018-01-05T06:00:15.820Z,8.96
2018-01-05T06:01:15.537Z,8.94
2018-01-05T06:02:15.781Z,8.93
2018-01-05T06:03:16.026Z,8.93
2018-01-05T06:04:15.478Z,9.01
2018-01-05T06:05:15.992Z,9.13
2018-01-05T06:06:15.718Z,9.23
2018-01-05T06:07:15.958Z,9.3
2018-01-05T06:08:15.933Z,9.25
2018-01-05T06:09:15.910Z,9.3
2018-01-05T06:10:15.891Z,9.3
2018-01-05T06:11:15.607Z,9.27
2018-01-05T06:12:15.862Z,9.35
2018-01-05T06:13:15.571Z,9.32
2018-01-05T06:14:15.816Z,9.42
2018-01-05T06:15:15.276Z,9.4
2018-01-05T06:16:15.514Z,9.49
2018-01-05T06:17:15.492Z,9.42
2018-01-05T06:18:15.473Z,9.39
2018-01-05T06:19:15.458Z,9.52
2018-01-05T06:20:15.437Z,9.49
2018-01-05T06:21:15.417Z,9.58
2018-01-05T06:22:15.663Z,9.53
2018-01-05T06:23:15.646Z,9.5
2018-01-05T06:24:15.362Z,9.53
2018-01-05T06:25:15.701Z,9.56
2018-01-05T06:26:15.596Z,9.53
2018-01-05T06:27:15.505Z,9.58
2018-01-05T06:28:15.548Z,9.58
2018-01-05T06:29:15.264Z,9.64
2018-01-05T06:30:14.983Z,9.66
2018-01-05T06:31:14.977Z,9.63
2018-01-05T06:32:15.522Z,9.67
2018-01-05T06:33:15.189Z,9.68
2018-01-05T06:34:15.443Z,9.68
2018-01-05T06:35:15.416Z,9.68
2018-01-05T06:36:14.868Z,9.7
2018-01-05T06:37:15.382Z,9.58
2018-01-05T06:38:15.097Z,9.75
2018-01-05T06:39:15.343Z,9.78
2018-01-05T06:40:15.071Z,9.78
2018-01-05T06:41:15.312Z,9.81
2018-01-05T06:42:14.760Z,9.76
2018-01-05T06:43:15.269Z,9.76
2018-01-05T06:44:14.987Z,9.78
2018-01-05T06:45:14.971Z,9.7
2018-01-05T06:46:15.210Z,9.79
2018-01-05T06:47:14.929Z,9.76
2018-01-05T06:48:14.909Z,9.78
2018-01-05T06:49:15.174Z,9.73
2018-01-05T06:50:14.869Z,9.71
2018-01-05T06:51:14.593Z,9.76
2018-01-05T06:52:15.102Z,9.73
2018-01-05T06:53:15.088Z,9.7
2018-01-05T06:54:14.798Z,9.73
2018-01-05T06:55:15.048Z,9.73
2018-01-05T06:56:15.024Z,9.73
2018-01-05T06:57:15.054Z,9.73
2018-01-05T06:58:14.987Z,9.75
2018-01-05T06:59:14.708Z,9.73
2018-01-05T07:00:14.424Z,9.7
2018-01-05T07:01:14.931Z,9.61
2018-01-05T07:02:14.911Z,9.58
2018-01-05T07:03:14.893Z,9.66
2018-01-05T07:04:14.884Z,9.64
2018-01-05T07:05:14.592Z,9.58
2018-01-05T07:06:14.313Z,9.63
2018-01-05T07:07:14.569Z,9.58
2018-01-05T07:08:14.805Z,9.64
2018-01-05T07:09:14.785Z,9.58
2018-01-05T07:10:14.858Z,9.58
2018-01-05T07:11:14.483Z,9.66
2018-01-05T07:12:14.470Z,9.61
2018-01-05T07:13:14.707Z,9.61
2018-01-05T07:14:14.436Z,9.67
2018-01-05T07:15:14.410Z,9.61
2018-01-05T07:16:14.395Z,9.63
2018-01-05T07:17:14.638Z,9.63
2018-01-05T07:18:14.614Z,9.58
2018-01-05T07:19:14.334Z,9.66
2018-01-05T07:20:14.580Z,9.63
2018-01-05T07:21:14.029Z,9.61
2018-01-05T07:22:14.546Z,9.66
2018-01-05T07:23:13.991Z,9.53
2018-01-05T07:24:14.238Z,9.56
2018-01-05T07:25:14.230Z,9.5
2018-01-05T07:26:14.474Z,9.48
2018-01-05T07:27:14.195Z,9.42
2018-01-05T07:28:14.459Z,9.4
2018-01-05T07:29:13.889Z,9.4
2018-01-05T07:30:14.132Z,9.42
2018-01-05T07:31:13.848Z,9.39
2018-01-05T07:32:14.092Z,9.35
2018-01-05T07:33:14.079Z,9.34
2018-01-05T07:34:14.070Z,9.27
2018-01-05T07:35:14.303Z,9.23
2018-01-05T07:36:14.289Z,9.25
2018-01-05T07:37:13.999Z,9.23
2018-01-05T07:38:13.980Z,9.25
2018-01-05T07:39:13.972Z,9.28
2018-01-05T07:40:14.206Z,9.24
2018-01-05T07:41:13.927Z,9.25
2018-01-05T07:42:13.910Z,9.28
2018-01-05T07:43:13.890Z,9.34
2018-01-05T07:44:13.870Z,9.46
2018-01-05T07:45:13.595Z,9.4
2018-01-05T07:46:13.834Z,9.49
2018-01-05T07:47:13.815Z,9.46
2018-01-05T07:48:14.064Z,9.4
2018-01-05T07:49:14.042Z,9.39
2018-01-05T07:50:13.761Z,9.32
2018-01-05T07:51:14.009Z,9.3
2018-01-05T07:52:13.990Z,9.35
2018-01-05T07:53:13.432Z,9.31
2018-01-05T07:54:13.421Z,9.28
2018-01-05T07:55:13.928Z,9.32
2018-01-05T07:56:13.380Z,9.3
2018-01-05T07:57:13.629Z,9.32
2018-01-05T07:58:13.606Z,9.35
2018-01-05T07:59:13.591Z,9.25
2018-01-05T08:00:13.576Z,9.25
2018-01-05T08:01:13.287Z,9.31
2018-01-05T08:02:13.801Z,9.34
2018-01-05T08:03:13.514Z,9.34
2018-01-05T08:04:13.766Z,9.3
2018-01-05T08:05:13.481Z,9.31
2018-01-05T08:06:13.725Z,9.27
2018-01-05T08:07:13.708Z,9.31
2018-01-05T08:08:13.686Z,9.32
2018-01-05T08:09:13.141Z,9.27
2018-01-05T08:10:13.383Z,9.27
2018-01-05T08:11:13.640Z,9.25
2018-01-05T08:12:13.617Z,9.25
2018-01-05T08:13:13.598Z,9.28
2018-01-05T08:14:13.573Z,9.28
2018-01-05T08:15:13.296Z,9.27
2018-01-05T08:16:13.538Z,9.23
2018-01-05T08:17:13.528Z,9.28
2018-01-05T08:18:13.504Z,9.31
2018-01-05T08:19:13.220Z,9.27
2018-01-05T08:20:13.206Z,9.32
2018-01-05T08:21:13.451Z,9.25
2018-01-05T08:22:13.436Z,9.25
2018-01-05T08:23:13.147Z,9.3
2018-01-05T08:24:12.874Z,9.31
2018-01-05T08:25:13.115Z,9.31
2018-01-05T08:26:13.354Z,9.27
2018-01-05T08:27:13.276Z,9.32
2018-01-05T08:28:13.324Z,9.3
2018-01-05T08:29:13.305Z,9.35
2018-01-05T08:30:13.025Z,9.25
2018-01-05T08:31:13.265Z,9.25
2018-01-05T08:32:12.995Z,9.32
2018-01-05T08:33:12.970Z,9.28
2018-01-05T08:34:12.953Z,9.25
2018-01-05T08:35:13.202Z,9.25
2018-01-05T08:36:13.176Z,9.23
2018-01-05T08:37:12.630Z,9.25
2018-01-05T08:38:13.187Z,9.13
2018-01-05T08:39:13.122Z,9.18
2018-01-05T08:40:12.835Z,9.23
2018-01-05T08:41:12.817Z,9.16
2018-01-05T08:42:12.799Z,9.16
2018-01-05T08:43:13.047Z,9.18
2018-01-05T08:44:12.768Z,9.13
2018-01-05T08:45:12.747Z,9.12
2018-01-05T08:46:12.724Z,9.13
2018-01-05T08:47:12.444Z,9.15
2018-01-05T08:48:12.693Z,9.06
2018-01-05T08:49:12.934Z,9.04
2018-01-05T08:50:12.930Z,9.12
2018-01-05T08:51:12.639Z,9.12
2018-01-05T08:52:12.616Z,9.04
2018-01-05T08:53:12.336Z,9.02
2018-01-05T08:54:12.582Z,9.13
2018-01-05T08:55:12.562Z,9.04
2018-01-05T08:56:12.544Z,9.06
2018-01-05T08:57:12.527Z,9.01
2018-01-05T08:58:12.772Z,9.01
2018-01-05T08:59:12.497Z,9.05
2018-01-05T09:00:12.471Z,8.97
2018-01-05T09:01:12.462Z,9.09
2018-01-05T09:02:12.438Z,8.99
2018-01-05T09:03:12.424Z,9.04
2018-01-05T09:04:12.662Z,9.06
2018-01-05T09:05:12.650Z,8.93
2018-01-05T09:06:12.099Z,9.01
2018-01-05T09:07:12.349Z,9.01
2018-01-05T09:08:12.325Z,8.96
2018-01-05T09:09:12.311Z,8.96
2018-01-05T09:10:12.579Z,8.97
2018-01-05T09:11:12.540Z,8.99
2018-01-05T09:12:12.256Z,8.87
2018-01-05T09:13:12.504Z,8.96
2018-01-05T09:14:12.488Z,8.94
2018-01-05T09:15:12.202Z,8.94
2018-01-05T09:16:11.920Z,8.94
2018-01-05T09:17:11.907Z,8.96
2018-01-05T09:18:12.413Z,8.93
2018-01-05T09:19:12.127Z,8.96
2018-01-05T09:20:12.112Z,8.93
2018-01-05T09:21:12.098Z,8.94
2018-01-05T09:22:11.817Z,8.96
2018-01-05T09:23:12.058Z,8.88
2018-01-05T09:24:12.039Z,8.93
2018-01-05T09:25:12.021Z,9.04
2018-01-05T09:26:11.751Z,9.01
2018-01-05T09:27:11.721Z,9.04
2018-01-05T09:28:11.708Z,9.06
2018-01-05T09:29:12.266Z,9.18
2018-01-05T09:30:11.672Z,9.09
2018-01-05T09:31:12.179Z,9.18
2018-01-05T09:32:11.637Z,9.09
2018-01-05T09:33:12.144Z,9.13
2018-01-05T09:34:12.126Z,9.16
2018-01-05T09:35:11.844Z,9.21
2018-01-05T09:36:11.560Z,9.24
2018-01-05T09:37:11.541Z,9.24
2018-01-05T09:38:11.786Z,9.25
2018-01-05T09:39:11.769Z,9.32
2018-01-05T09:40:11.759Z,9.3
2018-01-05T09:41:11.736Z,9.42
2018-01-05T09:42:11.457Z,9.34
2018-01-05T09:43:11.974Z,9.42
2018-01-05T09:44:11.947Z,9.4
2018-01-05T09:45:11.404Z,9.42
2018-01-05T09:46:11.382Z,9.48
2018-01-05T09:47:11.626Z,9.45
2018-01-05T09:48:11.624Z,9.45
2018-01-05T09:49:11.335Z,9.48
2018-01-05T09:50:11.857Z,9.39
2018-01-05T09:51:11.825Z,9.46
2018-01-05T09:52:11.810Z,9.4
2018-01-05T09:53:11.520Z,9.39
2018-01-05T09:54:11.754Z,9.56
2018-01-05T09:55:11.752Z,9.56
2018-01-05T09:56:11.467Z,9.6
2018-01-05T09:57:11.718Z,9.61
2018-01-05T09:58:11.437Z,9.67
2018-01-05T09:59:11.472Z,9.61
2018-01-05T10:00:11.659Z,9.66
2018-01-05T10:01:11.642Z,9.64
2018-01-05T10:02:11.366Z,9.73
2018-01-05T10:03:11.080Z,9.7
2018-01-05T10:04:11.343Z,9.71
2018-01-05T10:05:11.575Z,9.75
2018-01-05T10:06:11.031Z,9.71
2018-01-05T10:07:11.272Z,9.78
2018-01-05T10:08:11.539Z,9.76
2018-01-05T10:09:11.517Z,9.88
2018-01-05T10:10:11.229Z,9.83
2018-01-05T10:11:11.203Z,9.81
2018-01-05T10:12:10.927Z,9.85
2018-01-05T10:13:10.907Z,9.86
2018-01-05T10:14:11.172Z,9.85
2018-01-05T10:15:11.403Z,9.88
2018-01-05T10:16:11.119Z,9.85
2018-01-05T10:17:11.373Z,9.86
2018-01-05T10:18:11.354Z,9.86
2018-01-05T10:19:11.334Z,9.91
2018-01-05T10:20:11.315Z,9.88
2018-01-05T10:21:10.764Z,9.86
2018-01-05T10:22:11.015Z,9.97
2018-01-05T10:23:11.007Z,9.85
2018-01-05T10:24:11.245Z,9.94
2018-01-05T10:25:11.231Z,9.96
2018-01-05T10:26:10.942Z,9.97
2018-01-05T10:27:11.064Z,9.97
2018-01-05T10:28:10.641Z,9.94
2018-01-05T10:29:11.156Z,9.94
2018-01-05T10:30:11.138Z,9.91
2018-01-05T10:31:10.853Z,9.89
2018-01-05T10:32:11.101Z,9.91
2018-01-05T10:33:10.557Z,9.97
2018-01-05T10:34:10.801Z,10.01
2018-01-05T10:35:10.790Z,9.96
2018-01-05T10:36:10.504Z,9.97
2018-01-05T10:37:11.017Z,9.93
2018-01-05T10:38:10.467Z,10.01
2018-01-05T10:39:10.716Z,9.99
2018-01-05T10:40:10.703Z,10.01
2018-01-05T10:41:10.686Z,10.04
2018-01-05T10:42:10.929Z,10.04
2018-01-05T10:43:10.654Z,10.03
2018-01-05T10:44:10.893Z,10.14
2018-01-05T10:45:10.874Z,10.04
2018-01-05T10:46:10.600Z,10.04
2018-01-05T10:47:10.583Z,10.1
2018-01-05T10:48:10.563Z,10.1
2018-01-05T10:49:10.807Z,10.18
2018-01-05T10:50:10.796Z,10.18
2018-01-05T10:51:10.772Z,10.21
2018-01-05T10:52:10.491Z,10.25
2018-01-05T10:53:10.484Z,10.18
2018-01-05T10:54:10.723Z,10.18
2018-01-05T10:55:10.705Z,10.15
2018-01-05T10:56:10.689Z,10.19
2018-01-05T10:57:10.670Z,10.22
2018-01-05T10:58:10.388Z,10.15
2018-01-05T10:59:10.380Z,10.19
2018-01-05T11:00:10.366Z,10.22
2018-01-05T11:01:10.609Z,10.22
2018-01-05T11:02:10.322Z,10.19
2018-01-05T11:03:10.313Z,10.15
2018-01-05T11:04:10.564Z,10.17
2018-01-05T11:05:10.540Z,10.22
2018-01-05T11:06:10.260Z,10.17
2018-01-05T11:07:10.503Z,10.19
2018-01-05T11:08:10.224Z,10.19
2018-01-05T11:09:10.485Z,10.21
2018-01-05T11:10:10.197Z,10.19
2018-01-05T11:11:10.173Z,10.19
2018-01-05T11:12:10.422Z,10.17
2018-01-05T11:13:10.137Z,10.19
2018-01-05T11:14:10.121Z,10.21
2018-01-05T11:15:10.109Z,10.24
2018-01-05T11:16:10.090Z,10.19
2018-01-05T11:17:10.342Z,10.17
2018-01-05T11:18:09.789Z,10.21
2018-01-05T11:19:10.039Z,10.18
2018-01-05T11:20:10.018Z,10.24
2018-01-05T11:21:10.010Z,10.15
2018-01-05T11:22:10.251Z,10.26
2018-01-05T11:23:10.234Z,10.15
2018-01-05T11:24:09.685Z,10.22
2018-01-05T11:25:09.941Z,10.17
2018-01-05T11:26:10.239Z,10.18
2018-01-05T11:27:09.902Z,10.22
2018-01-05T11:28:10.151Z,10.26
2018-01-05T11:29:10.131Z,10.21
2018-01-05T11:30:10.177Z,10.3
2018-01-05T11:31:09.569Z,10.26
2018-01-05T11:32:10.083Z,10.22
2018-01-05T11:33:10.073Z,10.28
2018-01-05T11:34:09.781Z,10.28
2018-01-05T11:35:09.501Z,10.28
2018-01-05T11:36:10.021Z,10.26
2018-01-05T11:37:10.022Z,10.24
2018-01-05T11:38:09.735Z,10.21
2018-01-05T11:39:09.703Z,10.25
2018-01-05T11:40:09.691Z,10.36
2018-01-05T11:41:09.405Z,10.34
2018-01-05T11:42:09.958Z,10.3
2018-01-05T11:43:09.899Z,10.39
2018-01-05T11:44:09.619Z,10.36
2018-01-05T11:45:09.874Z,10.32
2018-01-05T11:46:09.854Z,10.32
2018-01-05T11:47:09.827Z,10.28
2018-01-05T11:48:09.550Z,10.33
2018-01-05T11:49:09.270Z,10.3
2018-01-05T11:50:09.781Z,10.34
2018-01-05T11:51:09.771Z,10.3
2018-01-05T11:52:09.485Z,10.26
2018-01-05T11:53:09.201Z,10.26
2018-01-05T11:54:09.458Z,10.33
2018-01-05T11:55:09.437Z,10.3
2018-01-05T11:56:09.417Z,10.28
2018-01-05T11:57:09.129Z,10.28
2018-01-05T11:58:09.378Z,10.37
2018-01-05T11:59:09.371Z,10.36
2018-01-05T12:00:09.345Z,10.33
2018-01-05T12:01:09.328Z,10.39
2018-01-05T12:02:09.686Z,10.36
2018-01-05T12:03:09.295Z,10.33
2018-01-05T12:04:09.540Z,10.34
2018-01-05T12:05:09.528Z,10.28
2018-01-05T12:06:09.559Z,10.4
2018-01-05T12:07:09.563Z,10.39
2018-01-05T12:08:09.477Z,10.36
2018-01-05T12:09:09.470Z,10.37
2018-01-05T12:10:09.464Z,10.39
2018-01-05T12:11:09.166Z,10.37
2018-01-05T12:12:09.408Z,10.53
2018-01-05T12:13:09.127Z,10.43
2018-01-05T12:14:09.378Z,10.4
2018-01-05T12:15:09.094Z,10.51
2018-01-05T12:16:09.344Z,10.52
2018-01-05T12:17:09.326Z,10.52
2018-01-05T12:18:09.314Z,10.53
2018-01-05T12:19:09.288Z,10.53
2018-01-05T12:20:09.009Z,10.51
2018-01-05T12:21:08.726Z,10.56
2018-01-05T12:22:08.716Z,10.55
2018-01-05T12:23:08.967Z,10.52
2018-01-05T12:24:08.972Z,10.53
2018-01-05T12:25:09.224Z,10.59
2018-01-05T12:26:08.935Z,10.51
2018-01-05T12:27:09.167Z,10.52
2018-01-05T12:28:09.087Z,10.58
2018-01-05T12:29:08.867Z,10.52
2018-01-05T12:30:08.856Z,10.52
2018-01-05T12:31:08.839Z,10.53
2018-01-05T12:32:09.079Z,10.51
2018-01-05T12:33:08.806Z,10.46
2018-01-05T12:34:08.777Z,10.46
2018-01-05T12:35:08.766Z,10.52
2018-01-05T12:36:09.030Z,10.53
2018-01-05T12:37:08.731Z,10.52
2018-01-05T12:38:08.721Z,10.46
2018-01-05T12:39:08.982Z,10.47
2018-01-05T12:40:08.956Z,10.55
2018-01-05T12:41:08.966Z,10.55
2018-01-05T12:42:08.917Z,10.56
2018-01-05T12:43:08.897Z,10.56
2018-01-05T12:44:08.626Z,10.55
2018-01-05T12:45:08.866Z,10.53
2018-01-05T12:46:08.324Z,10.6
2018-01-05T12:47:08.567Z,10.53
2018-01-05T12:48:08.818Z,10.52
2018-01-05T12:49:08.554Z,10.68
2018-01-05T12:50:08.577Z,10.6
2018-01-05T12:51:08.774Z,10.7
2018-01-05T12:52:08.485Z,10.74
2018-01-05T12:53:08.468Z,10.62
2018-01-05T12:54:08.460Z,10.63
2018-01-05T12:55:08.175Z,10.55
2018-01-05T12:56:08.422Z,10.63
2018-01-05T12:57:08.143Z,10.51
2018-01-05T12:58:08.654Z,10.47
2018-01-05T12:59:08.698Z,10.46
2018-01-05T13:00:08.625Z,10.51
2018-01-05T13:01:08.611Z,10.47
2018-01-05T13:02:08.643Z,10.47
2018-01-05T13:03:08.304Z,10.47
2018-01-05T13:04:08.297Z,10.47
2018-01-05T13:05:08.274Z,10.47
2018-01-05T13:06:08.528Z,10.44
2018-01-05T13:07:08.241Z,10.51
2018-01-05T13:08:08.237Z,10.43
2018-01-05T13:09:08.213Z,10.43
2018-01-05T13:10:08.204Z,10.37
2018-01-05T13:11:08.182Z,10.37
2018-01-05T13:12:08.162Z,10.39
2018-01-05T13:13:08.145Z,10.33
2018-01-05T13:14:08.398Z,10.33
2018-01-05T13:15:08.117Z,10.4